sensor_id;sensor_type;location;lat;lon;timestamp;P1;durP1;ratioP1;P2;durP2;ratioP2
33268;SDS011;19640;50.944;5.260;2023-04-25T00:01:47;18.85;;;4.95;;
33268;SDS011;19640;50.944;5.260;2023-04-25T00:04:13;7.22;;;4.43;;
33268;SDS011;19640;50.944;5.260;2023-04-25T00:06:39;14.70;;;4.50;;
33268;SDS011;19640;50.944;5.260;2023-04-25T00:09:05;13.20;;;5.05;;
33268;SDS011;19640;50.944;5.260;2023-04-25T00:11:36;9.97;;;3.73;;
33268;SDS011;19640;50.944;5.260;2023-04-25T00:14:03;11.27;;;4.22;;
33268;SDS011;19640;50.944;5.260;2023-04-25T00:16:29;11.27;;;4.32;;
33268;SDS011;19640;50.944;5.260;2023-04-25T00:18:58;20.20;;;5.00;;
33268;SDS011;19640;50.944;5.260;2023-04-25T00:21:24;8.30;;;4.50;;
33268;SDS011;19640;50.944;5.260;2023-04-25T00:23:51;22.67;;;5.40;;
33268;SDS011;19640;50.944;5.260;2023-04-25T00:26:18;15.20;;;4.45;;
33268;SDS011;19640;50.944;5.260;2023-04-25T00:28:46;17.30;;;4.65;;
33268;SDS011;19640;50.944;5.260;2023-04-25T00:31:12;8.65;;;3.70;;
33268;SDS011;19640;50.944;5.260;2023-04-25T00:33:38;11.23;;;4.03;;
33268;SDS011;19640;50.944;5.260;2023-04-25T00:36:04;15.98;;;4.15;;
33268;SDS011;19640;50.944;5.260;2023-04-25T00:38:30;15.40;;;4.10;;
33268;SDS011;19640;50.944;5.260;2023-04-25T00:40:56;13.05;;;4.05;;
33268;SDS011;19640;50.944;5.260;2023-04-25T00:43:23;17.73;;;4.93;;
33268;SDS011;19640;50.944;5.260;2023-04-25T00:45:52;14.85;;;4.00;;
33268;SDS011;19640;50.944;5.260;2023-04-25T00:48:19;16.65;;;4.53;;
33268;SDS011;19640;50.944;5.260;2023-04-25T00:50:57;14.23;;;4.25;;
33268;SDS011;19640;50.944;5.260;2023-04-25T00:53:24;11.40;;;4.50;;
33268;SDS011;19640;50.944;5.260;2023-04-25T00:55:51;11.63;;;4.25;;
33268;SDS011;19640;50.944;5.260;2023-04-25T00:58:18;20.38;;;6.43;;
33268;SDS011;19640;50.944;5.260;2023-04-25T01:00:48;16.77;;;4.03;;
33268;SDS011;19640;50.944;5.260;2023-04-25T01:03:15;10.30;;;3.78;;
33268;SDS011;19640;50.944;5.260;2023-04-25T01:05:42;11.73;;;4.13;;
33268;SDS011;19640;50.944;5.260;2023-04-25T01:08:09;21.50;;;5.05;;
33268;SDS011;19640;50.944;5.260;2023-04-25T01:10:35;10.43;;;3.97;;
33268;SDS011;19640;50.944;5.260;2023-04-25T01:13:01;9.65;;;3.97;;
33268;SDS011;19640;50.944;5.260;2023-04-25T01:15:27;15.13;;;4.05;;
33268;SDS011;19640;50.944;5.260;2023-04-25T01:17:53;15.85;;;4.60;;
33268;SDS011;19640;50.944;5.260;2023-04-25T01:20:21;21.85;;;4.53;;
33268;SDS011;19640;50.944;5.260;2023-04-25T01:22:48;11.35;;;3.65;;
33268;SDS011;19640;50.944;5.260;2023-04-25T01:25:17;11.75;;;4.10;;
33268;SDS011;19640;50.944;5.260;2023-04-25T01:27:44;18.40;;;4.13;;
33268;SDS011;19640;50.944;5.260;2023-04-25T01:30:11;12.27;;;3.97;;
33268;SDS011;19640;50.944;5.260;2023-04-25T01:32:37;14.88;;;4.13;;
33268;SDS011;19640;50.944;5.260;2023-04-25T01:35:04;12.82;;;4.07;;
33268;SDS011;19640;50.944;5.260;2023-04-25T01:37:35;12.33;;;4.17;;
33268;SDS011;19640;50.944;5.260;2023-04-25T01:40:05;15.38;;;4.40;;
33268;SDS011;19640;50.944;5.260;2023-04-25T01:42:32;20.55;;;4.65;;
33268;SDS011;19640;50.944;5.260;2023-04-25T01:44:59;13.73;;;4.47;;
33268;SDS011;19640;50.944;5.260;2023-04-25T01:47:24;18.48;;;4.55;;
33268;SDS011;19640;50.944;5.260;2023-04-25T01:49:50;14.95;;;5.20;;
33268;SDS011;19640;50.944;5.260;2023-04-25T01:52:16;12.52;;;4.05;;
33268;SDS011;19640;50.944;5.260;2023-04-25T01:54:41;14.65;;;4.22;;
33268;SDS011;19640;50.944;5.260;2023-04-25T01:57:12;11.90;;;5.25;;
33268;SDS011;19640;50.944;5.260;2023-04-25T01:59:38;20.88;;;5.00;;
33268;SDS011;19640;50.944;5.260;2023-04-25T02:02:04;13.50;;;4.22;;
33268;SDS011;19640;50.944;5.260;2023-04-25T02:04:30;10.70;;;4.13;;
33268;SDS011;19640;50.944;5.260;2023-04-25T02:06:56;13.00;;;4.03;;
33268;SDS011;19640;50.944;5.260;2023-04-25T02:09:22;13.07;;;3.90;;
33268;SDS011;19640;50.944;5.260;2023-04-25T02:11:48;12.48;;;4.28;;
33268;SDS011;19640;50.944;5.260;2023-04-25T02:14:14;15.82;;;5.20;;
33268;SDS011;19640;50.944;5.260;2023-04-25T02:16:39;14.05;;;5.00;;
33268;SDS011;19640;50.944;5.260;2023-04-25T02:19:05;18.30;;;5.00;;
33268;SDS011;19640;50.944;5.260;2023-04-25T02:21:31;17.08;;;5.07;;
33268;SDS011;19640;50.944;5.260;2023-04-25T02:23:57;12.82;;;4.78;;
33268;SDS011;19640;50.944;5.260;2023-04-25T02:26:23;16.30;;;4.72;;
33268;SDS011;19640;50.944;5.260;2023-04-25T02:28:49;10.20;;;3.97;;
33268;SDS011;19640;50.944;5.260;2023-04-25T02:31:15;16.05;;;5.03;;
33268;SDS011;19640;50.944;5.260;2023-04-25T02:33:41;14.05;;;4.80;;
33268;SDS011;19640;50.944;5.260;2023-04-25T02:36:07;13.23;;;5.68;;
33268;SDS011;19640;50.944;5.260;2023-04-25T02:38:33;16.67;;;4.80;;
33268;SDS011;19640;50.944;5.260;2023-04-25T02:40:59;16.38;;;4.97;;
33268;SDS011;19640;50.944;5.260;2023-04-25T02:43:25;17.05;;;4.93;;
33268;SDS011;19640;50.944;5.260;2023-04-25T02:45:50;15.55;;;5.47;;
33268;SDS011;19640;50.944;5.260;2023-04-25T02:48:16;16.55;;;5.35;;
33268;SDS011;19640;50.944;5.260;2023-04-25T02:50:42;20.40;;;5.75;;
33268;SDS011;19640;50.944;5.260;2023-04-25T02:53:08;17.40;;;5.10;;
33268;SDS011;19640;50.944;5.260;2023-04-25T02:55:33;18.75;;;5.32;;
33268;SDS011;19640;50.944;5.260;2023-04-25T02:57:59;15.65;;;5.00;;
33268;SDS011;19640;50.944;5.260;2023-04-25T03:00:25;12.82;;;5.35;;
33268;SDS011;19640;50.944;5.260;2023-04-25T03:02:51;17.77;;;5.75;;
33268;SDS011;19640;50.944;5.260;2023-04-25T03:05:16;15.30;;;5.63;;
33268;SDS011;19640;50.944;5.260;2023-04-25T03:07:43;18.45;;;6.95;;
33268;SDS011;19640;50.944;5.260;2023-04-25T03:10:10;11.73;;;5.05;;
33268;SDS011;19640;50.944;5.260;2023-04-25T03:12:36;14.27;;;5.25;;
33268;SDS011;19640;50.944;5.260;2023-04-25T03:15:02;22.40;;;5.85;;
33268;SDS011;19640;50.944;5.260;2023-04-25T03:17:28;16.10;;;5.82;;
33268;SDS011;19640;50.944;5.260;2023-04-25T03:19:54;17.20;;;6.78;;
33268;SDS011;19640;50.944;5.260;2023-04-25T03:22:21;11.98;;;4.65;;
33268;SDS011;19640;50.944;5.260;2023-04-25T03:24:47;21.83;;;5.47;;
33268;SDS011;19640;50.944;5.260;2023-04-25T03:27:12;20.67;;;5.85;;
33268;SDS011;19640;50.944;5.260;2023-04-25T03:29:38;17.95;;;5.60;;
33268;SDS011;19640;50.944;5.260;2023-04-25T03:32:05;13.38;;;6.13;;
33268;SDS011;19640;50.944;5.260;2023-04-25T03:34:31;16.60;;;5.35;;
33268;SDS011;19640;50.944;5.260;2023-04-25T03:36:56;20.85;;;6.78;;
33268;SDS011;19640;50.944;5.260;2023-04-25T03:39:22;13.93;;;5.88;;
33268;SDS011;19640;50.944;5.260;2023-04-25T03:41:48;19.75;;;5.72;;
33268;SDS011;19640;50.944;5.260;2023-04-25T03:44:13;16.88;;;6.32;;
33268;SDS011;19640;50.944;5.260;2023-04-25T03:46:39;17.35;;;6.47;;
33268;SDS011;19640;50.944;5.260;2023-04-25T03:49:05;20.00;;;5.90;;
33268;SDS011;19640;50.944;5.260;2023-04-25T03:51:31;24.48;;;6.95;;
33268;SDS011;19640;50.944;5.260;2023-04-25T03:53:56;23.63;;;6.60;;
33268;SDS011;19640;50.944;5.260;2023-04-25T03:56:22;19.10;;;6.43;;
33268;SDS011;19640;50.944;5.260;2023-04-25T03:58:48;19.67;;;6.13;;
33268;SDS011;19640;50.944;5.260;2023-04-25T04:01:13;20.17;;;7.43;;
33268;SDS011;19640;50.944;5.260;2023-04-25T04:03:39;20.05;;;6.28;;
33268;SDS011;19640;50.944;5.260;2023-04-25T04:06:05;18.23;;;6.25;;
33268;SDS011;19640;50.944;5.260;2023-04-25T04:08:32;14.55;;;5.43;;
33268;SDS011;19640;50.944;5.260;2023-04-25T04:10:58;11.98;;;4.75;;
33268;SDS011;19640;50.944;5.260;2023-04-25T04:13:28;23.58;;;5.50;;
33268;SDS011;19640;50.944;5.260;2023-04-25T04:15:54;15.88;;;4.82;;
33268;SDS011;19640;50.944;5.260;2023-04-25T04:18:20;11.52;;;4.53;;
33268;SDS011;19640;50.944;5.260;2023-04-25T04:20:46;12.52;;;4.20;;
33268;SDS011;19640;50.944;5.260;2023-04-25T04:23:12;13.45;;;4.50;;
33268;SDS011;19640;50.944;5.260;2023-04-25T04:25:38;11.15;;;4.40;;
33268;SDS011;19640;50.944;5.260;2023-04-25T04:28:05;9.73;;;3.80;;
33268;SDS011;19640;50.944;5.260;2023-04-25T04:30:31;13.35;;;4.18;;
33268;SDS011;19640;50.944;5.260;2023-04-25T04:32:58;9.70;;;3.45;;
33268;SDS011;19640;50.944;5.260;2023-04-25T04:35:24;12.80;;;3.65;;
33268;SDS011;19640;50.944;5.260;2023-04-25T04:37:50;12.95;;;3.53;;
33268;SDS011;19640;50.944;5.260;2023-04-25T04:40:16;8.85;;;3.88;;
33268;SDS011;19640;50.944;5.260;2023-04-25T04:42:42;9.20;;;3.50;;
33268;SDS011;19640;50.944;5.260;2023-04-25T04:45:10;6.93;;;3.17;;
33268;SDS011;19640;50.944;5.260;2023-04-25T04:47:37;14.15;;;3.70;;
33268;SDS011;19640;50.944;5.260;2023-04-25T04:50:04;8.25;;;3.10;;
33268;SDS011;19640;50.944;5.260;2023-04-25T04:52:32;8.50;;;4.03;;
33268;SDS011;19640;50.944;5.260;2023-04-25T04:54:57;8.52;;;2.95;;
33268;SDS011;19640;50.944;5.260;2023-04-25T04:57:23;12.88;;;3.72;;
33268;SDS011;19640;50.944;5.260;2023-04-25T04:59:49;15.18;;;3.78;;
33268;SDS011;19640;50.944;5.260;2023-04-25T05:02:15;8.15;;;3.45;;
33268;SDS011;19640;50.944;5.260;2023-04-25T05:04:41;9.15;;;3.60;;
33268;SDS011;19640;50.944;5.260;2023-04-25T05:07:06;7.63;;;2.83;;
33268;SDS011;19640;50.944;5.260;2023-04-25T05:09:32;13.52;;;4.10;;
33268;SDS011;19640;50.944;5.260;2023-04-25T05:11:58;9.25;;;3.58;;
33268;SDS011;19640;50.944;5.260;2023-04-25T05:14:23;9.57;;;3.40;;
33268;SDS011;19640;50.944;5.260;2023-04-25T05:16:49;10.57;;;3.20;;
33268;SDS011;19640;50.944;5.260;2023-04-25T05:19:15;11.98;;;4.00;;
33268;SDS011;19640;50.944;5.260;2023-04-25T05:21:41;12.85;;;3.10;;
33268;SDS011;19640;50.944;5.260;2023-04-25T05:24:08;7.45;;;3.40;;
33268;SDS011;19640;50.944;5.260;2023-04-25T05:26:33;6.70;;;3.60;;
33268;SDS011;19640;50.944;5.260;2023-04-25T05:28:59;13.63;;;3.70;;
33268;SDS011;19640;50.944;5.260;2023-04-25T05:31:25;15.32;;;4.57;;
33268;SDS011;19640;50.944;5.260;2023-04-25T05:33:51;10.65;;;5.05;;
33268;SDS011;19640;50.944;5.260;2023-04-25T05:36:18;6.88;;;4.18;;
33268;SDS011;19640;50.944;5.260;2023-04-25T05:38:44;7.60;;;3.95;;
33268;SDS011;19640;50.944;5.260;2023-04-25T05:41:10;11.30;;;3.72;;
33268;SDS011;19640;50.944;5.260;2023-04-25T05:43:36;7.95;;;3.47;;
33268;SDS011;19640;50.944;5.260;2023-04-25T05:46:02;17.27;;;3.85;;
33268;SDS011;19640;50.944;5.260;2023-04-25T05:48:27;11.40;;;4.15;;
33268;SDS011;19640;50.944;5.260;2023-04-25T05:50:53;14.35;;;4.50;;
33268;SDS011;19640;50.944;5.260;2023-04-25T05:53:19;14.35;;;4.45;;
33268;SDS011;19640;50.944;5.260;2023-04-25T05:55:46;11.98;;;4.82;;
33268;SDS011;19640;50.944;5.260;2023-04-25T05:58:11;11.98;;;4.85;;
33268;SDS011;19640;50.944;5.260;2023-04-25T06:00:37;12.32;;;4.80;;
33268;SDS011;19640;50.944;5.260;2023-04-25T06:03:03;13.07;;;5.45;;
33268;SDS011;19640;50.944;5.260;2023-04-25T06:05:29;14.90;;;5.00;;
33268;SDS011;19640;50.944;5.260;2023-04-25T06:07:55;18.73;;;5.63;;
33268;SDS011;19640;50.944;5.260;2023-04-25T06:10:21;10.93;;;5.28;;
33268;SDS011;19640;50.944;5.260;2023-04-25T06:12:47;12.77;;;5.70;;
33268;SDS011;19640;50.944;5.260;2023-04-25T06:15:13;13.20;;;4.68;;
33268;SDS011;19640;50.944;5.260;2023-04-25T06:17:40;13.07;;;4.60;;
33268;SDS011;19640;50.944;5.260;2023-04-25T06:20:06;12.90;;;4.55;;
33268;SDS011;19640;50.944;5.260;2023-04-25T06:22:33;13.80;;;4.28;;
33268;SDS011;19640;50.944;5.260;2023-04-25T06:24:59;11.18;;;3.92;;
33268;SDS011;19640;50.944;5.260;2023-04-25T06:27:25;9.63;;;4.25;;
33268;SDS011;19640;50.944;5.260;2023-04-25T06:29:51;13.85;;;5.00;;
33268;SDS011;19640;50.944;5.260;2023-04-25T06:32:16;15.32;;;6.30;;
33268;SDS011;19640;50.944;5.260;2023-04-25T06:34:43;21.55;;;6.10;;
33268;SDS011;19640;50.944;5.260;2023-04-25T06:37:09;10.10;;;5.60;;
33268;SDS011;19640;50.944;5.260;2023-04-25T06:39:35;12.57;;;5.22;;
33268;SDS011;19640;50.944;5.260;2023-04-25T06:42:00;14.85;;;5.88;;
33268;SDS011;19640;50.944;5.260;2023-04-25T06:44:26;13.55;;;5.88;;
33268;SDS011;19640;50.944;5.260;2023-04-25T06:46:54;13.63;;;6.10;;
33268;SDS011;19640;50.944;5.260;2023-04-25T06:49:20;18.70;;;6.32;;
33268;SDS011;19640;50.944;5.260;2023-04-25T06:51:45;9.88;;;5.85;;
33268;SDS011;19640;50.944;5.260;2023-04-25T06:54:11;13.10;;;5.90;;
33268;SDS011;19640;50.944;5.260;2023-04-25T06:56:37;20.83;;;6.45;;
33268;SDS011;19640;50.944;5.260;2023-04-25T06:59:03;14.88;;;6.47;;
33268;SDS011;19640;50.944;5.260;2023-04-25T07:01:28;14.38;;;5.97;;
33268;SDS011;19640;50.944;5.260;2023-04-25T07:03:55;14.77;;;6.82;;
33268;SDS011;19640;50.944;5.260;2023-04-25T07:06:20;15.93;;;6.40;;
33268;SDS011;19640;50.944;5.260;2023-04-25T07:08:46;11.82;;;6.03;;
33268;SDS011;19640;50.944;5.260;2023-04-25T07:11:12;16.85;;;6.63;;
33268;SDS011;19640;50.944;5.260;2023-04-25T07:13:37;13.73;;;6.05;;
33268;SDS011;19640;50.944;5.260;2023-04-25T07:16:03;15.77;;;6.50;;
33268;SDS011;19640;50.944;5.260;2023-04-25T07:18:29;11.65;;;6.32;;
33268;SDS011;19640;50.944;5.260;2023-04-25T07:20:55;16.55;;;6.20;;
33268;SDS011;19640;50.944;5.260;2023-04-25T07:23:21;16.30;;;6.35;;
33268;SDS011;19640;50.944;5.260;2023-04-25T07:25:47;14.50;;;5.68;;
33268;SDS011;19640;50.944;5.260;2023-04-25T07:28:12;13.63;;;5.13;;
33268;SDS011;19640;50.944;5.260;2023-04-25T07:30:38;16.45;;;5.85;;
33268;SDS011;19640;50.944;5.260;2023-04-25T07:33:03;15.43;;;5.13;;
33268;SDS011;19640;50.944;5.260;2023-04-25T07:35:29;16.80;;;6.97;;
33268;SDS011;19640;50.944;5.260;2023-04-25T07:37:55;19.55;;;7.00;;
33268;SDS011;19640;50.944;5.260;2023-04-25T07:40:20;19.35;;;6.68;;
33268;SDS011;19640;50.944;5.260;2023-04-25T07:42:46;16.15;;;8.48;;
33268;SDS011;19640;50.944;5.260;2023-04-25T07:45:12;16.58;;;8.00;;
33268;SDS011;19640;50.944;5.260;2023-04-25T07:47:38;15.85;;;8.60;;
33268;SDS011;19640;50.944;5.260;2023-04-25T07:50:04;19.80;;;6.50;;
33268;SDS011;19640;50.944;5.260;2023-04-25T07:52:30;15.63;;;5.63;;
33268;SDS011;19640;50.944;5.260;2023-04-25T07:54:56;13.98;;;6.03;;
33268;SDS011;19640;50.944;5.260;2023-04-25T07:57:23;11.02;;;3.40;;
33268;SDS011;19640;50.944;5.260;2023-04-25T07:59:49;7.97;;;1.90;;
33268;SDS011;19640;50.944;5.260;2023-04-25T08:02:15;10.30;;;2.00;;
33268;SDS011;19640;50.944;5.260;2023-04-25T08:04:41;7.53;;;1.90;;
33268;SDS011;19640;50.944;5.260;2023-04-25T08:07:06;6.68;;;2.30;;
33268;SDS011;19640;50.944;5.260;2023-04-25T08:09:32;9.73;;;3.08;;
33268;SDS011;19640;50.944;5.260;2023-04-25T08:12:02;8.45;;;2.60;;
33268;SDS011;19640;50.944;5.260;2023-04-25T08:14:28;11.68;;;2.50;;
33268;SDS011;19640;50.944;5.260;2023-04-25T08:17:00;8.75;;;2.92;;
33268;SDS011;19640;50.944;5.260;2023-04-25T08:19:28;6.97;;;2.08;;
33268;SDS011;19640;50.944;5.260;2023-04-25T08:21:55;6.90;;;1.95;;
33268;SDS011;19640;50.944;5.260;2023-04-25T08:24:21;6.95;;;2.63;;
33268;SDS011;19640;50.944;5.260;2023-04-25T08:26:47;11.98;;;3.03;;
33268;SDS011;19640;50.944;5.260;2023-04-25T08:29:13;12.07;;;2.65;;
33268;SDS011;19640;50.944;5.260;2023-04-25T08:31:39;13.20;;;2.85;;
33268;SDS011;19640;50.944;5.260;2023-04-25T08:34:05;8.40;;;2.15;;
33268;SDS011;19640;50.944;5.260;2023-04-25T08:36:31;5.53;;;2.38;;
33268;SDS011;19640;50.944;5.260;2023-04-25T08:38:57;13.30;;;2.80;;
33268;SDS011;19640;50.944;5.260;2023-04-25T08:41:23;5.78;;;2.45;;
33268;SDS011;19640;50.944;5.260;2023-04-25T08:43:50;6.55;;;2.33;;
33268;SDS011;19640;50.944;5.260;2023-04-25T08:46:18;12.50;;;2.83;;
33268;SDS011;19640;50.944;5.260;2023-04-25T08:48:45;8.95;;;3.60;;
33268;SDS011;19640;50.944;5.260;2023-04-25T08:51:15;8.98;;;3.40;;
33268;SDS011;19640;50.944;5.260;2023-04-25T08:53:50;8.88;;;3.50;;
33268;SDS011;19640;50.944;5.260;2023-04-25T08:56:17;8.18;;;2.90;;
33268;SDS011;19640;50.944;5.260;2023-04-25T08:58:47;14.30;;;3.90;;
33268;SDS011;19640;50.944;5.260;2023-04-25T09:01:15;10.73;;;3.15;;
33268;SDS011;19640;50.944;5.260;2023-04-25T09:03:41;6.32;;;3.28;;
33268;SDS011;19640;50.944;5.260;2023-04-25T09:06:09;10.02;;;3.55;;
33268;SDS011;19640;50.944;5.260;2023-04-25T09:08:36;9.80;;;3.42;;
33268;SDS011;19640;50.944;5.260;2023-04-25T09:11:02;9.20;;;3.15;;
33268;SDS011;19640;50.944;5.260;2023-04-25T09:13:28;7.78;;;3.20;;
33268;SDS011;19640;50.944;5.260;2023-04-25T09:15:55;7.90;;;3.05;;
33268;SDS011;19640;50.944;5.260;2023-04-25T09:18:23;8.85;;;2.17;;
33268;SDS011;19640;50.944;5.260;2023-04-25T09:20:53;12.57;;;2.97;;
33268;SDS011;19640;50.944;5.260;2023-04-25T09:23:20;5.97;;;1.90;;
33268;SDS011;19640;50.944;5.260;2023-04-25T09:25:47;6.78;;;1.50;;
33268;SDS011;19640;50.944;5.260;2023-04-25T09:28:17;5.38;;;1.60;;
33268;SDS011;19640;50.944;5.260;2023-04-25T09:30:49;12.90;;;2.30;;
33268;SDS011;19640;50.944;5.260;2023-04-25T09:33:19;8.38;;;2.53;;
33268;SDS011;19640;50.944;5.260;2023-04-25T09:35:45;5.50;;;2.40;;
33268;SDS011;19640;50.944;5.260;2023-04-25T09:38:11;11.52;;;2.03;;
33268;SDS011;19640;50.944;5.260;2023-04-25T09:40:42;7.50;;;2.20;;
33268;SDS011;19640;50.944;5.260;2023-04-25T09:43:21;6.57;;;2.50;;
33268;SDS011;19640;50.944;5.260;2023-04-25T09:45:48;6.63;;;2.03;;
33268;SDS011;19640;50.944;5.260;2023-04-25T09:48:17;7.00;;;2.45;;
33268;SDS011;19640;50.944;5.260;2023-04-25T09:50:44;9.80;;;2.70;;
33268;SDS011;19640;50.944;5.260;2023-04-25T09:53:11;5.60;;;1.88;;
33268;SDS011;19640;50.944;5.260;2023-04-25T09:55:37;7.15;;;1.80;;
33268;SDS011;19640;50.944;5.260;2023-04-25T09:58:04;6.43;;;1.88;;
33268;SDS011;19640;50.944;5.260;2023-04-25T10:00:32;7.63;;;1.73;;
33268;SDS011;19640;50.944;5.260;2023-04-25T10:03:00;3.70;;;1.15;;
33268;SDS011;19640;50.944;5.260;2023-04-25T10:05:29;7.35;;;2.67;;
33268;SDS011;19640;50.944;5.260;2023-04-25T10:07:57;5.65;;;1.90;;
33268;SDS011;19640;50.944;5.260;2023-04-25T10:10:27;6.15;;;1.77;;
33268;SDS011;19640;50.944;5.260;2023-04-25T10:12:55;12.38;;;1.50;;
33268;SDS011;19640;50.944;5.260;2023-04-25T10:15:21;3.95;;;1.50;;
33268;SDS011;19640;50.944;5.260;2023-04-25T10:17:48;6.80;;;1.45;;
33268;SDS011;19640;50.944;5.260;2023-04-25T10:20:15;8.27;;;1.52;;
33268;SDS011;19640;50.944;5.260;2023-04-25T10:22:42;7.57;;;2.30;;
33268;SDS011;19640;50.944;5.260;2023-04-25T10:25:10;6.53;;;2.03;;
33268;SDS011;19640;50.944;5.260;2023-04-25T10:27:36;4.22;;;1.63;;
33268;SDS011;19640;50.944;5.260;2023-04-25T10:30:07;6.20;;;1.90;;
33268;SDS011;19640;50.944;5.260;2023-04-25T10:32:36;7.07;;;1.17;;
33268;SDS011;19640;50.944;5.260;2023-04-25T10:35:12;2.78;;;1.00;;
33268;SDS011;19640;50.944;5.260;2023-04-25T10:40:39;3.50;;;0.90;;
33268;SDS011;19640;50.944;5.260;2023-04-25T10:46:24;6.78;;;0.98;;
33268;SDS011;19640;50.944;5.260;2023-04-25T10:51:19;6.13;;;1.00;;
33268;SDS011;19640;50.944;5.260;2023-04-25T10:53:48;3.78;;;0.90;;
33268;SDS011;19640;50.944;5.260;2023-04-25T10:56:22;4.63;;;1.10;;
33268;SDS011;19640;50.944;5.260;2023-04-25T10:58:50;5.32;;;1.40;;
33268;SDS011;19640;50.944;5.260;2023-04-25T11:01:19;2.50;;;1.23;;
33268;SDS011;19640;50.944;5.260;2023-04-25T11:03:46;3.60;;;1.50;;
33268;SDS011;19640;50.944;5.260;2023-04-25T11:06:20;3.10;;;0.90;;
33268;SDS011;19640;50.944;5.260;2023-04-25T11:08:52;4.03;;;0.90;;
33268;SDS011;19640;50.944;5.260;2023-04-25T11:11:18;4.97;;;0.93;;
33268;SDS011;19640;50.944;5.260;2023-04-25T11:13:47;1.70;;;0.55;;
33268;SDS011;19640;50.944;5.260;2023-04-25T11:16:14;3.47;;;0.90;;
33268;SDS011;19640;50.944;5.260;2023-04-25T11:18:43;2.08;;;1.00;;
33268;SDS011;19640;50.944;5.260;2023-04-25T11:21:10;2.55;;;0.88;;
33268;SDS011;19640;50.944;5.260;2023-04-25T11:23:36;4.38;;;1.05;;
33268;SDS011;19640;50.944;5.260;2023-04-25T11:26:02;7.97;;;1.35;;
33268;SDS011;19640;50.944;5.260;2023-04-25T11:28:32;5.70;;;0.80;;
33268;SDS011;19640;50.944;5.260;2023-04-25T11:30:58;2.53;;;1.00;;
33268;SDS011;19640;50.944;5.260;2023-04-25T11:33:24;4.63;;;1.02;;
33268;SDS011;19640;50.944;5.260;2023-04-25T11:35:52;4.68;;;1.02;;
33268;SDS011;19640;50.944;5.260;2023-04-25T11:38:20;5.40;;;0.90;;
33268;SDS011;19640;50.944;5.260;2023-04-25T11:40:49;3.97;;;0.90;;
33268;SDS011;19640;50.944;5.260;2023-04-25T11:43:17;8.18;;;0.82;;
33268;SDS011;19640;50.944;5.260;2023-04-25T11:45:45;3.50;;;0.90;;
33268;SDS011;19640;50.944;5.260;2023-04-25T11:48:12;1.77;;;0.70;;
33268;SDS011;19640;50.944;5.260;2023-04-25T11:50:38;4.63;;;1.27;;
33268;SDS011;19640;50.944;5.260;2023-04-25T11:53:05;1.55;;;1.10;;
33268;SDS011;19640;50.944;5.260;2023-04-25T11:55:31;2.17;;;0.68;;
33268;SDS011;19640;50.944;5.260;2023-04-25T11:57:59;1.80;;;0.60;;
33268;SDS011;19640;50.944;5.260;2023-04-25T12:00:26;3.78;;;1.13;;
33268;SDS011;19640;50.944;5.260;2023-04-25T12:02:52;1.77;;;1.00;;
33268;SDS011;19640;50.944;5.260;2023-04-25T12:05:19;4.43;;;0.98;;
33268;SDS011;19640;50.944;5.260;2023-04-25T12:07:48;2.20;;;1.08;;
33268;SDS011;19640;50.944;5.260;2023-04-25T12:10:14;2.38;;;0.82;;
33268;SDS011;19640;50.944;5.260;2023-04-25T12:12:41;3.05;;;1.30;;
33268;SDS011;19640;50.944;5.260;2023-04-25T12:15:12;2.80;;;1.23;;
33268;SDS011;19640;50.944;5.260;2023-04-25T12:17:45;6.18;;;1.75;;
33268;SDS011;19640;50.944;5.260;2023-04-25T12:20:16;3.08;;;1.45;;
33268;SDS011;19640;50.944;5.260;2023-04-25T12:22:44;5.93;;;1.35;;
33268;SDS011;19640;50.944;5.260;2023-04-25T12:28:13;4.50;;;1.48;;
33268;SDS011;19640;50.944;5.260;2023-04-25T12:33:24;2.17;;;1.50;;
33268;SDS011;19640;50.944;5.260;2023-04-25T12:35:51;6.15;;;1.52;;
33268;SDS011;19640;50.944;5.260;2023-04-25T12:38:21;4.10;;;1.52;;
33268;SDS011;19640;50.944;5.260;2023-04-25T12:40:48;4.78;;;1.83;;
33268;SDS011;19640;50.944;5.260;2023-04-25T12:43:14;4.32;;;1.60;;
33268;SDS011;19640;50.944;5.260;2023-04-25T12:45:40;3.97;;;1.40;;
33268;SDS011;19640;50.944;5.260;2023-04-25T12:48:06;3.67;;;1.20;;
33268;SDS011;19640;50.944;5.260;2023-04-25T12:50:31;6.15;;;1.77;;
33268;SDS011;19640;50.944;5.260;2023-04-25T12:52:57;4.78;;;1.13;;
33268;SDS011;19640;50.944;5.260;2023-04-25T12:55:22;4.45;;;1.05;;
33268;SDS011;19640;50.944;5.260;2023-04-25T12:57:48;2.55;;;1.00;;
33268;SDS011;19640;50.944;5.260;2023-04-25T13:00:14;4.43;;;1.00;;
33268;SDS011;19640;50.944;5.260;2023-04-25T13:02:43;3.05;;;1.35;;
33268;SDS011;19640;50.944;5.260;2023-04-25T13:05:08;3.17;;;1.05;;
33268;SDS011;19640;50.944;5.260;2023-04-25T13:07:34;5.47;;;1.10;;
33268;SDS011;19640;50.944;5.260;2023-04-25T13:10:00;2.90;;;1.00;;
33268;SDS011;19640;50.944;5.260;2023-04-25T13:12:27;7.82;;;1.15;;
33268;SDS011;19640;50.944;5.260;2023-04-25T13:14:53;3.65;;;1.20;;
33268;SDS011;19640;50.944;5.260;2023-04-25T13:17:19;7.80;;;1.63;;
33268;SDS011;19640;50.944;5.260;2023-04-25T13:19:45;3.40;;;1.30;;
33268;SDS011;19640;50.944;5.260;2023-04-25T13:22:10;4.28;;;1.23;;
33268;SDS011;19640;50.944;5.260;2023-04-25T13:24:36;3.60;;;1.40;;
33268;SDS011;19640;50.944;5.260;2023-04-25T13:27:01;3.47;;;1.40;;
33268;SDS011;19640;50.944;5.260;2023-04-25T13:29:28;5.93;;;1.63;;
33268;SDS011;19640;50.944;5.260;2023-04-25T13:31:53;3.63;;;1.33;;
33268;SDS011;19640;50.944;5.260;2023-04-25T13:34:19;4.15;;;1.40;;
33268;SDS011;19640;50.944;5.260;2023-04-25T13:36:45;7.07;;;1.73;;
33268;SDS011;19640;50.944;5.260;2023-04-25T13:39:11;8.25;;;1.45;;
33268;SDS011;19640;50.944;5.260;2023-04-25T13:41:37;5.13;;;1.40;;
33268;SDS011;19640;50.944;5.260;2023-04-25T13:44:02;4.35;;;1.20;;
33268;SDS011;19640;50.944;5.260;2023-04-25T13:46:28;3.85;;;1.00;;
33268;SDS011;19640;50.944;5.260;2023-04-25T13:48:54;2.67;;;1.13;;
33268;SDS011;19640;50.944;5.260;2023-04-25T13:51:20;3.65;;;1.10;;
33268;SDS011;19640;50.944;5.260;2023-04-25T13:53:46;3.08;;;1.00;;
33268;SDS011;19640;50.944;5.260;2023-04-25T13:56:11;3.35;;;0.90;;
33268;SDS011;19640;50.944;5.260;2023-04-25T13:58:37;2.88;;;1.00;;
33268;SDS011;19640;50.944;5.260;2023-04-25T14:01:03;1.77;;;0.85;;
33268;SDS011;19640;50.944;5.260;2023-04-25T14:03:29;2.75;;;1.00;;
33268;SDS011;19640;50.944;5.260;2023-04-25T14:05:55;1.83;;;0.90;;
33268;SDS011;19640;50.944;5.260;2023-04-25T14:08:21;2.70;;;0.95;;
33268;SDS011;19640;50.944;5.260;2023-04-25T14:10:46;3.53;;;0.90;;
33268;SDS011;19640;50.944;5.260;2023-04-25T14:13:12;2.38;;;0.60;;
33268;SDS011;19640;50.944;5.260;2023-04-25T14:15:38;1.70;;;0.70;;
33268;SDS011;19640;50.944;5.260;2023-04-25T14:18:03;1.27;;;0.52;;
33268;SDS011;19640;50.944;5.260;2023-04-25T14:20:30;0.57;;;0.55;;
33268;SDS011;19640;50.944;5.260;2023-04-25T14:22:56;2.25;;;0.60;;
33268;SDS011;19640;50.944;5.260;2023-04-25T14:25:23;2.65;;;0.80;;
33268;SDS011;19640;50.944;5.260;2023-04-25T14:27:49;2.35;;;0.50;;
33268;SDS011;19640;50.944;5.260;2023-04-25T14:30:16;3.05;;;0.80;;
33268;SDS011;19640;50.944;5.260;2023-04-25T14:32:43;7.25;;;0.88;;
33268;SDS011;19640;50.944;5.260;2023-04-25T14:35:09;2.42;;;0.60;;
33268;SDS011;19640;50.944;5.260;2023-04-25T14:37:35;1.85;;;0.80;;
33268;SDS011;19640;50.944;5.260;2023-04-25T14:40:00;1.83;;;0.68;;
33268;SDS011;19640;50.944;5.260;2023-04-25T14:42:26;2.95;;;0.80;;
33268;SDS011;19640;50.944;5.260;2023-04-25T14:44:52;2.42;;;0.70;;
33268;SDS011;19640;50.944;5.260;2023-04-25T14:47:17;3.50;;;0.82;;
33268;SDS011;19640;50.944;5.260;2023-04-25T14:49:43;3.67;;;0.90;;
33268;SDS011;19640;50.944;5.260;2023-04-25T14:52:11;4.30;;;0.82;;